sensor_id;sensor_type;location;lat;lon;timestamp;pressure;altitude;pressure_sealevel;temperature;humidity
50011;BME280;35899;50.352;19.390;2023-03-03T00:01:23;98005.56;;;-1.69;80.67
50011;BME280;35899;50.352;19.390;2023-03-03T00:03:49;98005.60;;;-1.71;80.68
50011;BME280;35899;50.352;19.390;2023-03-03T00:06:16;98006.52;;;-1.74;80.67
50011;BME280;35899;50.352;19.390;2023-03-03T00:08:42;98002.02;;;-1.79;80.72
50011;BME280;35899;50.352;19.390;2023-03-03T00:11:09;97999.89;;;-1.82;80.78
50011;BME280;35899;50.352;19.390;2023-03-03T00:13:39;97998.23;;;-1.84;81.15
50011;BME280;35899;50.352;19.390;2023-03-03T00:18:51;97990.13;;;-1.76;82.39
50011;BME280;35899;50.352;19.390;2023-03-03T00:21:21;97993.39;;;-1.71;82.70
50011;BME280;35899;50.352;19.390;2023-03-03T00:23:48;97998.08;;;-1.68;82.64
50011;BME280;35899;50.352;19.390;2023-03-03T00:28:48;97995.78;;;-1.72;82.20
50011;BME280;35899;50.352;19.390;2023-03-03T00:33:51;97994.25;;;-1.80;81.83
50011;BME280;35899;50.352;19.390;2023-03-03T00:38:48;97996.85;;;-1.92;81.47
50011;BME280;35899;50.352;19.390;2023-03-03T00:41:19;97996.90;;;-1.94;81.71
50011;BME280;35899;50.352;19.390;2023-03-03T00:43:47;97995.80;;;-1.99;81.45
50011;BME280;35899;50.352;19.390;2023-03-03T00:46:18;98000.56;;;-2.09;80.93
50011;BME280;35899;50.352;19.390;2023-03-03T00:48:45;97997.14;;;-2.17;81.13
50011;BME280;35899;50.352;19.390;2023-03-03T00:53:44;97994.48;;;-2.20;81.67
50011;BME280;35899;50.352;19.390;2023-03-03T00:56:10;97992.48;;;-2.22;81.73
50011;BME280;35899;50.352;19.390;2023-03-03T00:58:37;97990.11;;;-2.22;81.98
50011;BME280;35899;50.352;19.390;2023-03-03T01:01:03;97988.08;;;-2.21;82.20
50011;BME280;35899;50.352;19.390;2023-03-03T01:03:37;97982.70;;;-2.15;83.36
50011;BME280;35899;50.352;19.390;2023-03-03T01:06:04;97977.64;;;-2.08;83.94
50011;BME280;35899;50.352;19.390;2023-03-03T01:08:31;97977.20;;;-2.02;84.15
50011;BME280;35899;50.352;19.390;2023-03-03T01:10:59;97973.37;;;-1.96;84.15
50011;BME280;35899;50.352;19.390;2023-03-03T01:13:29;97969.73;;;-1.93;84.01
50011;BME280;35899;50.352;19.390;2023-03-03T01:15:57;97969.38;;;-1.92;83.88
50011;BME280;35899;50.352;19.390;2023-03-03T01:18:23;97968.05;;;-1.94;83.63
50011;BME280;35899;50.352;19.390;2023-03-03T01:20:50;97963.36;;;-1.97;83.34
50011;BME280;35899;50.352;19.390;2023-03-03T01:23:16;97960.38;;;-2.00;83.29
50011;BME280;35899;50.352;19.390;2023-03-03T01:25:43;97957.75;;;-2.05;82.93
50011;BME280;35899;50.352;19.390;2023-03-03T01:28:09;97950.35;;;-2.08;83.06
50011;BME280;35899;50.352;19.390;2023-03-03T01:30:36;97951.23;;;-2.09;83.11
50011;BME280;35899;50.352;19.390;2023-03-03T01:33:02;97947.03;;;-2.11;83.06
50011;BME280;35899;50.352;19.390;2023-03-03T01:35:29;97942.69;;;-2.15;82.79
50011;BME280;35899;50.352;19.390;2023-03-03T01:37:55;97937.99;;;-2.18;82.93
50011;BME280;35899;50.352;19.390;2023-03-03T01:40:23;97940.94;;;-2.21;82.74
50011;BME280;35899;50.352;19.390;2023-03-03T01:42:50;97942.80;;;-2.30;82.11
50011;BME280;35899;50.352;19.390;2023-03-03T01:45:23;97946.90;;;-2.41;81.76
50011;BME280;35899;50.352;19.390;2023-03-03T01:50:20;97943.80;;;-2.58;81.47
50011;BME280;35899;50.352;19.390;2023-03-03T01:52:50;97941.73;;;-2.66;81.18
50011;BME280;35899;50.352;19.390;2023-03-03T01:55:21;97939.68;;;-2.75;81.23
50011;BME280;35899;50.352;19.390;2023-03-03T01:57:51;97942.16;;;-2.82;81.13
50011;BME280;35899;50.352;19.390;2023-03-03T02:00:20;97937.67;;;-2.87;81.26
50011;BME280;35899;50.352;19.390;2023-03-03T02:02:47;97940.38;;;-2.87;81.74
50011;BME280;35899;50.352;19.390;2023-03-03T02:05:14;97940.19;;;-2.85;82.19
50011;BME280;35899;50.352;19.390;2023-03-03T02:07:42;97940.83;;;-2.83;82.51
50011;BME280;35899;50.352;19.390;2023-03-03T02:10:13;97937.79;;;-2.84;82.17
50011;BME280;35899;50.352;19.390;2023-03-03T02:12:41;97939.25;;;-2.90;81.69
50011;BME280;35899;50.352;19.390;2023-03-03T02:15:28;97939.88;;;-2.97;81.43
50011;BME280;35899;50.352;19.390;2023-03-03T02:17:57;97945.39;;;-3.03;81.39
50011;BME280;35899;50.352;19.390;2023-03-03T02:25:41;97945.05;;;-3.14;81.54
50011;BME280;35899;50.352;19.390;2023-03-03T02:28:09;97945.06;;;-3.17;81.69
50011;BME280;35899;50.352;19.390;2023-03-03T02:30:36;97941.33;;;-3.15;81.98
50011;BME280;35899;50.352;19.390;2023-03-03T02:33:03;97941.95;;;-3.11;82.46
50011;BME280;35899;50.352;19.390;2023-03-03T02:35:31;97939.18;;;-3.07;82.79
50011;BME280;35899;50.352;19.390;2023-03-03T02:38:04;97937.61;;;-3.04;82.81
50011;BME280;35899;50.352;19.390;2023-03-03T02:40:35;97938.13;;;-3.04;82.74
50011;BME280;35899;50.352;19.390;2023-03-03T02:43:04;97940.13;;;-3.03;82.68
50011;BME280;35899;50.352;19.390;2023-03-03T02:45:32;97936.91;;;-3.03;82.86
50011;BME280;35899;50.352;19.390;2023-03-03T02:47:58;97938.41;;;-3.02;82.92
50011;BME280;35899;50.352;19.390;2023-03-03T02:50:25;97940.10;;;-3.01;83.08
50011;BME280;35899;50.352;19.390;2023-03-03T02:52:51;97941.30;;;-3.02;82.78
50011;BME280;35899;50.352;19.390;2023-03-03T02:55:18;97939.95;;;-3.03;82.73
50011;BME280;35899;50.352;19.390;2023-03-03T02:57:44;97932.54;;;-3.05;82.76
50011;BME280;35899;50.352;19.390;2023-03-03T03:00:11;97933.54;;;-3.04;82.75
50011;BME280;35899;50.352;19.390;2023-03-03T03:05:37;97935.71;;;-3.02;83.06
50011;BME280;35899;50.352;19.390;2023-03-03T03:08:03;97938.13;;;-3.05;82.70
50011;BME280;35899;50.352;19.390;2023-03-03T03:10:30;97940.95;;;-3.13;82.16
50011;BME280;35899;50.352;19.390;2023-03-03T03:12:57;97939.75;;;-3.23;81.78
50011;BME280;35899;50.352;19.390;2023-03-03T03:15:24;97937.69;;;-3.32;81.59
50011;BME280;35899;50.352;19.390;2023-03-03T03:17:50;97937.27;;;-3.39;81.47
50011;BME280;35899;50.352;19.390;2023-03-03T03:20:17;97932.09;;;-3.44;81.47
50011;BME280;35899;50.352;19.390;2023-03-03T03:22:44;97931.42;;;-3.44;81.96
50011;BME280;35899;50.352;19.390;2023-03-03T03:25:10;97936.13;;;-3.42;82.39
50011;BME280;35899;50.352;19.390;2023-03-03T03:27:37;97937.18;;;-3.45;81.92
50011;BME280;35899;50.352;19.390;2023-03-03T03:30:04;97931.70;;;-3.52;81.75
50011;BME280;35899;50.352;19.390;2023-03-03T03:32:31;97928.36;;;-3.55;82.01
50011;BME280;35899;50.352;19.390;2023-03-03T03:34:59;97924.64;;;-3.55;82.32
50011;BME280;35899;50.352;19.390;2023-03-03T03:37:25;97920.02;;;-3.51;82.89
50011;BME280;35899;50.352;19.390;2023-03-03T03:39:51;97918.13;;;-3.49;83.04
50011;BME280;35899;50.352;19.390;2023-03-03T03:42:18;97916.41;;;-3.48;82.97
50011;BME280;35899;50.352;19.390;2023-03-03T03:44:44;97918.77;;;-3.47;82.90
50011;BME280;35899;50.352;19.390;2023-03-03T03:47:11;97912.17;;;-3.46;83.09
50011;BME280;35899;50.352;19.390;2023-03-03T03:49:37;97909.77;;;-3.45;83.33
50011;BME280;35899;50.352;19.390;2023-03-03T03:52:04;97915.16;;;-3.42;83.42
50011;BME280;35899;50.352;19.390;2023-03-03T03:54:31;97915.98;;;-3.41;83.41
50011;BME280;35899;50.352;19.390;2023-03-03T03:56:58;97915.80;;;-3.40;83.61
50011;BME280;35899;50.352;19.390;2023-03-03T03:59:25;97920.17;;;-3.38;83.47
50011;BME280;35899;50.352;19.390;2023-03-03T04:01:51;97917.52;;;-3.41;83.22
50011;BME280;35899;50.352;19.390;2023-03-03T04:04:18;97913.30;;;-3.43;83.48
50011;BME280;35899;50.352;19.390;2023-03-03T04:06:44;97921.92;;;-3.42;83.76
50011;BME280;35899;50.352;19.390;2023-03-03T04:09:12;97926.30;;;-3.41;83.82
50011;BME280;35899;50.352;19.390;2023-03-03T04:11:38;97920.53;;;-3.40;83.85
50011;BME280;35899;50.352;19.390;2023-03-03T04:14:05;97920.70;;;-3.39;83.74
50011;BME280;35899;50.352;19.390;2023-03-03T04:16:33;97923.66;;;-3.45;83.21
50011;BME280;35899;50.352;19.390;2023-03-03T04:19:00;97929.89;;;-3.56;82.38
50011;BME280;35899;50.352;19.390;2023-03-03T04:21:27;97923.96;;;-3.67;82.05
50011;BME280;35899;50.352;19.390;2023-03-03T04:23:55;97925.77;;;-3.76;81.80
50011;BME280;35899;50.352;19.390;2023-03-03T04:26:21;97929.60;;;-3.84;81.72
50011;BME280;35899;50.352;19.390;2023-03-03T04:28:48;97927.66;;;-3.93;81.45
50011;BME280;35899;50.352;19.390;2023-03-03T04:31:15;97929.77;;;-4.00;81.50
50011;BME280;35899;50.352;19.390;2023-03-03T04:33:41;97937.28;;;-4.05;81.51
50011;BME280;35899;50.352;19.390;2023-03-03T04:36:08;97934.34;;;-4.15;81.17
50011;BME280;35899;50.352;19.390;2023-03-03T04:38:34;97937.50;;;-4.24;81.21
50011;BME280;35899;50.352;19.390;2023-03-03T04:41:00;97936.18;;;-4.28;81.45
50011;BME280;35899;50.352;19.390;2023-03-03T04:43:30;97932.33;;;-4.32;81.72
50011;BME280;35899;50.352;19.390;2023-03-03T04:45:57;97924.08;;;-4.34;82.13
50011;BME280;35899;50.352;19.390;2023-03-03T04:48:23;97924.23;;;-4.32;82.45
50011;BME280;35899;50.352;19.390;2023-03-03T04:50:51;97924.36;;;-4.29;82.58
50011;BME280;35899;50.352;19.390;2023-03-03T04:53:18;97925.36;;;-4.26;82.78
50011;BME280;35899;50.352;19.390;2023-03-03T04:55:45;97924.97;;;-4.23;82.90
50011;BME280;35899;50.352;19.390;2023-03-03T04:58:12;97927.67;;;-4.23;82.54
50011;BME280;35899;50.352;19.390;2023-03-03T05:00:39;97925.45;;;-4.21;82.78
50011;BME280;35899;50.352;19.390;2023-03-03T05:03:05;97926.29;;;-4.19;82.86
50011;BME280;35899;50.352;19.390;2023-03-03T05:05:32;97936.44;;;-4.21;82.42
50011;BME280;35899;50.352;19.390;2023-03-03T05:07:58;97938.71;;;-4.27;82.24
50011;BME280;35899;50.352;19.390;2023-03-03T05:10:25;97939.60;;;-4.33;82.06
50011;BME280;35899;50.352;19.390;2023-03-03T05:12:51;97947.70;;;-4.31;82.42
50011;BME280;35899;50.352;19.390;2023-03-03T05:15:17;97947.11;;;-4.23;83.35
50011;BME280;35899;50.352;19.390;2023-03-03T05:17:44;97945.93;;;-4.08;84.11
50011;BME280;35899;50.352;19.390;2023-03-03T05:20:10;97945.41;;;-3.92;84.97
50011;BME280;35899;50.352;19.390;2023-03-03T05:22:37;97943.34;;;-3.76;85.32
50011;BME280;35899;50.352;19.390;2023-03-03T05:25:03;97939.27;;;-3.61;85.52
50011;BME280;35899;50.352;19.390;2023-03-03T05:27:30;97941.41;;;-3.44;85.99
50011;BME280;35899;50.352;19.390;2023-03-03T05:29:57;97941.91;;;-3.31;86.05
50011;BME280;35899;50.352;19.390;2023-03-03T05:32:23;97941.57;;;-3.20;86.03
50011;BME280;35899;50.352;19.390;2023-03-03T05:34:50;97946.16;;;-3.09;86.24
50011;BME280;35899;50.352;19.390;2023-03-03T05:37:16;97951.28;;;-3.01;86.09
50011;BME280;35899;50.352;19.390;2023-03-03T05:39:42;97952.38;;;-2.95;85.67
50011;BME280;35899;50.352;19.390;2023-03-03T05:42:10;97958.58;;;-2.92;85.40
50011;BME280;35899;50.352;19.390;2023-03-03T05:44:37;97963.05;;;-2.86;85.48
50011;BME280;35899;50.352;19.390;2023-03-03T05:47:03;97968.54;;;-2.79;85.50
50011;BME280;35899;50.352;19.390;2023-03-03T05:49:29;97976.47;;;-2.77;85.66
50011;BME280;35899;50.352;19.390;2023-03-03T05:51:56;97983.17;;;-2.73;85.90
50011;BME280;35899;50.352;19.390;2023-03-03T05:54:22;97980.21;;;-2.68;86.12
50011;BME280;35899;50.352;19.390;2023-03-03T05:56:48;97976.73;;;-2.62;86.29
50011;BME280;35899;50.352;19.390;2023-03-03T05:59:15;97978.45;;;-2.54;86.44
50011;BME280;35899;50.352;19.390;2023-03-03T06:01:41;97976.29;;;-2.46;86.44
50011;BME280;35899;50.352;19.390;2023-03-03T06:04:08;97983.79;;;-2.39;86.48
50011;BME280;35899;50.352;19.390;2023-03-03T06:06:34;97985.19;;;-2.31;86.41
50011;BME280;35899;50.352;19.390;2023-03-03T06:09:00;97986.60;;;-2.25;86.47
50011;BME280;35899;50.352;19.390;2023-03-03T06:11:27;97990.09;;;-2.21;86.39
50011;BME280;35899;50.352;19.390;2023-03-03T06:13:53;97987.48;;;-2.18;86.37
50011;BME280;35899;50.352;19.390;2023-03-03T06:16:20;97991.14;;;-2.13;86.31
50011;BME280;35899;50.352;19.390;2023-03-03T06:18:46;97986.82;;;-2.09;86.27
50011;BME280;35899;50.352;19.390;2023-03-03T06:21:12;97986.44;;;-2.06;86.22
50011;BME280;35899;50.352;19.390;2023-03-03T06:23:39;97985.02;;;-2.03;86.21
50011;BME280;35899;50.352;19.390;2023-03-03T06:26:05;97977.59;;;-1.95;86.30
50011;BME280;35899;50.352;19.390;2023-03-03T06:28:32;97979.92;;;-1.84;86.41
50011;BME280;35899;50.352;19.390;2023-03-03T06:30:58;97979.20;;;-1.73;86.37
50011;BME280;35899;50.352;19.390;2023-03-03T06:33:25;97982.94;;;-1.66;86.21
50011;BME280;35899;50.352;19.390;2023-03-03T06:35:51;97973.30;;;-1.59;86.10
50011;BME280;35899;50.352;19.390;2023-03-03T06:38:18;97980.61;;;-1.51;86.12
50011;BME280;35899;50.352;19.390;2023-03-03T06:40:45;97981.78;;;-1.50;86.06
50011;BME280;35899;50.352;19.390;2023-03-03T06:43:11;97978.52;;;-1.49;86.08
50011;BME280;35899;50.352;19.390;2023-03-03T06:45:38;97979.17;;;-1.47;86.09
50011;BME280;35899;50.352;19.390;2023-03-03T06:48:04;97982.41;;;-1.48;86.00
50011;BME280;35899;50.352;19.390;2023-03-03T06:50:31;97985.40;;;-1.45;86.29
50011;BME280;35899;50.352;19.390;2023-03-03T06:53:03;97978.94;;;-1.45;86.11
50011;BME280;35899;50.352;19.390;2023-03-03T06:55:32;97979.34;;;-1.39;86.21
50011;BME280;35899;50.352;19.390;2023-03-03T06:57:59;97977.48;;;-1.31;86.27
50011;BME280;35899;50.352;19.390;2023-03-03T07:00:26;97982.43;;;-1.26;86.42
50011;BME280;35899;50.352;19.390;2023-03-03T07:02:57;97981.69;;;-1.22;86.35
50011;BME280;35899;50.352;19.390;2023-03-03T07:05:25;97974.94;;;-1.16;86.51
50011;BME280;35899;50.352;19.390;2023-03-03T07:07:54;97965.76;;;-1.09;86.42
50011;BME280;35899;50.352;19.390;2023-03-03T07:10:24;97962.79;;;-0.97;86.56
50011;BME280;35899;50.352;19.390;2023-03-03T07:12:51;97955.36;;;-0.85;86.53
50011;BME280;35899;50.352;19.390;2023-03-03T07:20:42;97971.99;;;-0.55;86.31
50011;BME280;35899;50.352;19.390;2023-03-03T07:25:44;97997.55;;;-0.51;85.66
50011;BME280;35899;50.352;19.390;2023-03-03T07:28:27;97993.83;;;-0.52;85.51
50011;BME280;35899;50.352;19.390;2023-03-03T07:30:55;97989.39;;;-0.51;85.49
50011;BME280;35899;50.352;19.390;2023-03-03T07:33:49;97987.35;;;-0.44;85.49
50011;BME280;35899;50.352;19.390;2023-03-03T07:36:29;97993.21;;;-0.34;85.53
50011;BME280;35899;50.352;19.390;2023-03-03T07:38:57;97991.09;;;-0.24;85.37
50011;BME280;35899;50.352;19.390;2023-03-03T07:41:25;97998.39;;;-0.17;85.23
50011;BME280;35899;50.352;19.390;2023-03-03T07:43:56;97998.55;;;-0.17;84.97
50011;BME280;35899;50.352;19.390;2023-03-03T07:49:00;97991.67;;;-0.01;84.91
50011;BME280;35899;50.352;19.390;2023-03-03T07:51:36;97997.11;;;0.06;84.63
50011;BME280;35899;50.352;19.390;2023-03-03T07:56:43;98024.98;;;-0.06;84.92
50011;BME280;35899;50.352;19.390;2023-03-03T07:59:20;98023.58;;;-0.17;85.00
50011;BME280;35899;50.352;19.390;2023-03-03T08:01:49;98015.68;;;-0.28;85.23
50011;BME280;35899;50.352;19.390;2023-03-03T08:06:52;98001.84;;;-0.46;85.72
50011;BME280;35899;50.352;19.390;2023-03-03T08:11:57;98005.96;;;-0.41;86.09
50011;BME280;35899;50.352;19.390;2023-03-03T08:14:26;98000.19;;;-0.27;86.31
50011;BME280;35899;50.352;19.390;2023-03-03T08:16:55;98000.48;;;-0.12;86.18
50011;BME280;35899;50.352;19.390;2023-03-03T08:19:21;97995.98;;;-0.02;86.07
50011;BME280;35899;50.352;19.390;2023-03-03T08:21:48;97996.40;;;0.13;85.92
50011;BME280;35899;50.352;19.390;2023-03-03T08:24:15;97992.27;;;0.27;85.85
50011;BME280;35899;50.352;19.390;2023-03-03T08:26:41;97993.55;;;0.37;85.44
50011;BME280;35899;50.352;19.390;2023-03-03T08:29:07;98000.80;;;0.45;85.33
50011;BME280;35899;50.352;19.390;2023-03-03T08:31:34;98012.77;;;0.49;85.23
50011;BME280;35899;50.352;19.390;2023-03-03T08:34:08;98016.41;;;0.47;85.04
50011;BME280;35899;50.352;19.390;2023-03-03T08:36:34;98021.95;;;0.44;85.10
50011;BME280;35899;50.352;19.390;2023-03-03T08:39:01;98025.09;;;0.35;84.98
50011;BME280;35899;50.352;19.390;2023-03-03T08:41:30;98028.35;;;0.27;85.14
50011;BME280;35899;50.352;19.390;2023-03-03T08:44:11;98032.41;;;0.22;85.22
50011;BME280;35899;50.352;19.390;2023-03-03T08:46:37;98033.09;;;0.16;85.56
50011;BME280;35899;50.352;19.390;2023-03-03T08:49:04;98034.50;;;0.07;85.51
50011;BME280;35899;50.352;19.390;2023-03-03T08:51:31;98027.83;;;0.03;85.74
50011;BME280;35899;50.352;19.390;2023-03-03T08:53:57;98023.71;;;0.04;86.01
50011;BME280;35899;50.352;19.390;2023-03-03T08:56:24;98026.09;;;0.04;86.11
50011;BME280;35899;50.352;19.390;2023-03-03T08:58:50;98034.80;;;0.03;86.20
50011;BME280;35899;50.352;19.390;2023-03-03T09:01:30;98030.70;;;0.03;86.40
50011;BME280;35899;50.352;19.390;2023-03-03T09:03:56;98021.33;;;-0.03;86.39
50011;BME280;35899;50.352;19.390;2023-03-03T09:06:23;98012.09;;;-0.08;86.21
50011;BME280;35899;50.352;19.390;2023-03-03T09:08:50;98016.55;;;-0.09;86.49
50011;BME280;35899;50.352;19.390;2023-03-03T09:11:19;98014.82;;;-0.08;86.84
50011;BME280;35899;50.352;19.390;2023-03-03T09:13:47;98007.60;;;-0.05;86.96
50011;BME280;35899;50.352;19.390;2023-03-03T09:16:13;98005.45;;;-0.01;86.84
50011;BME280;35899;50.352;19.390;2023-03-03T09:18:40;98014.34;;;0.04;87.02
50011;BME280;35899;50.352;19.390;2023-03-03T09:21:21;98020.20;;;0.14;87.35
50011;BME280;35899;50.352;19.390;2023-03-03T09:23:54;98026.01;;;0.20;87.28
50011;BME280;35899;50.352;19.390;2023-03-03T09:26:25;98030.30;;;0.18;87.03
50011;BME280;35899;50.352;19.390;2023-03-03T09:29:03;98028.67;;;0.15;87.18
50011;BME280;35899;50.352;19.390;2023-03-03T09:34:08;98021.87;;;0.28;87.20
50011;BME280;35899;50.352;19.390;2023-03-03T09:36:45;98015.95;;;0.27;86.97
50011;BME280;35899;50.352;19.390;2023-03-03T11:57:04;98024.52;;;1.30;86.54
50011;BME280;35899;50.352;19.390;2023-03-03T12:04:33;98023.13;;;1.48;85.66
50011;BME280;35899;50.352;19.390;2023-03-03T12:12:56;98025.11;;;1.49;85.48
50011;BME280;35899;50.352;19.390;2023-03-03T12:15:39;98026.66;;;1.49;85.19
50011;BME280;35899;50.352;19.390;2023-03-03T12:25:45;98018.51;;;1.32;84.97
50011;BME280;35899;50.352;19.390;2023-03-03T12:28:19;98023.55;;;1.34;84.95
50011;BME280;35899;50.352;19.390;2023-03-03T12:33:31;98020.11;;;1.46;84.92
50011;BME280;35899;50.352;19.390;2023-03-03T12:43:54;97999.73;;;1.64;84.19
50011;BME280;35899;50.352;19.390;2023-03-03T12:46:39;98000.98;;;1.68;84.22
50011;BME280;35899;50.352;19.390;2023-03-03T12:49:14;97999.84;;;1.72;83.36
50011;BME280;35899;50.352;19.390;2023-03-03T12:55:17;97993.73;;;1.96;82.99
50011;BME280;35899;50.352;19.390;2023-03-03T12:57:57;97986.59;;;2.05;82.89
50011;BME280;35899;50.352;19.390;2023-03-03T13:03:20;97984.00;;;2.25;82.31
50011;BME280;35899;50.352;19.390;2023-03-03T13:11:27;97980.48;;;3.19;81.10
50011;BME280;35899;50.352;19.390;2023-03-03T13:14:06;97978.98;;;3.40;79.47
50011;BME280;35899;50.352;19.390;2023-03-03T13:16:38;97978.88;;;3.38;79.14
50011;BME280;35899;50.352;19.390;2023-03-03T13:19:22;97982.48;;;3.29;78.80
50011;BME280;35899;50.352;19.390;2023-03-03T13:22:01;97987.81;;;3.11;78.61
50011;BME280;35899;50.352;19.390;2023-03-03T13:27:26;97991.80;;;3.01;78.03
50011;BME280;35899;50.352;19.390;2023-03-03T13:32:41;97988.14;;;3.06;77.82
50011;BME280;35899;50.352;19.390;2023-03-03T13:37:56;97988.80;;;2.99;78.08
50011;BME280;35899;50.352;19.390;2023-03-03T13:40:32;97988.58;;;2.91;77.85
50011;BME280;35899;50.352;19.390;2023-03-03T13:43:18;97988.69;;;2.88;77.82
50011;BME280;35899;50.352;19.390;2023-03-03T13:56:31;97981.13;;;2.53;77.66
50011;BME280;35899;50.352;19.390;2023-03-03T14:07:14;97979.69;;;2.17;77.27
50011;BME280;35899;50.352;19.390;2023-03-03T14:09:58;97982.44;;;2.16;77.78
50011;BME280;35899;50.352;19.390;2023-03-03T14:15:19;97981.41;;;2.11;78.28
50011;BME280;35899;50.352;19.390;2023-03-03T14:20:21;97977.58;;;2.09;78.23
50011;BME280;35899;50.352;19.390;2023-03-03T14:22:51;97975.61;;;2.06;78.03
50011;BME280;35899;50.352;19.390;2023-03-03T14:25:21;97970.83;;;2.07;78.29
50011;BME280;35899;50.352;19.390;2023-03-03T14:28:08;97974.69;;;2.03;77.74
50011;BME280;35899;50.352;19.390;2023-03-03T14:30:37;97978.35;;;1.91;77.50
50011;BME280;35899;50.352;19.390;2023-03-03T14:35:40;97980.43;;;1.75;78.16
50011;BME280;35899;50.352;19.390;2023-03-03T14:40:36;97982.67;;;1.59;78.38
50011;BME280;35899;50.352;19.390;2023-03-03T14:43:05;97978.39;;;1.54;78.68
50011;BME280;35899;50.352;19.390;2023-03-03T14:45:44;97973.77;;;1.50;78.67
50011;BME280;35899;50.352;19.390;2023-03-03T14:48:25;97969.64;;;1.46;78.91
50011;BME280;35899;50.352;19.390;2023-03-03T14:50:58;97968.26;;;1.41;79.00
50011;BME280;35899;50.352;19.390;2023-03-03T14:53:46;97969.45;;;1.31;78.89
50011;BME280;35899;50.352;19.390;2023-03-03T14:56:22;97970.30;;;1.26;79.33
50011;BME280;35899;50.352;19.390;2023-03-03T14:58:50;97971.35;;;1.24;79.54
50011;BME280;35899;50.352;19.390;2023-03-03T15:01:30;97971.64;;;1.21;79.68
50011;BME280;35899;50.352;19.390;2023-03-03T15:04:02;97971.30;;;1.15;79.62
50011;BME280;35899;50.352;19.390;2023-03-03T15:06:40;97968.82;;;1.13;79.81
50011;BME280;35899;50.352;19.390;2023-03-03T15:11:51;97960.49;;;1.07;80.14
50011;BME280;35899;50.352;19.390;2023-03-03T15:14:28;97955.91;;;1.06;80.20
50011;BME280;35899;50.352;19.390;2023-03-03T15:17:12;97951.96;;;1.01;80.27
50011;BME280;35899;50.352;19.390;2023-03-03T15:22:23;97951.52;;;0.94;80.50
50011;BME280;35899;50.352;19.390;2023-03-03T15:25:00;97959.02;;;0.88;80.50
50011;BME280;35899;50.352;19.390;2023-03-03T15:31:08;97961.04;;;0.77;80.82
50011;BME280;35899;50.352;19.390;2023-03-03T15:33:46;97961.66;;;0.74;81.07
50011;BME280;35899;50.352;19.390;2023-03-03T15:38:54;97959.43;;;0.68;81.27
50011;BME280;35899;50.352;19.390;2023-03-03T15:41:30;97955.60;;;0.66;81.39
50011;BME280;35899;50.352;19.390;2023-03-03T15:44:20;97960.66;;;0.62;81.46
50011;BME280;35899;50.352;19.390;2023-03-03T15:47:09;97961.80;;;0.57;81.72
50011;BME280;35899;50.352;19.390;2023-03-03T15:50:03;97958.06;;;0.51;81.55
50011;BME280;35899;50.352;19.390;2023-03-03T16:03:16;97960.55;;;0.30;82.29
50011;BME280;35899;50.352;19.390;2023-03-03T16:05:50;97958.84;;;0.30;82.52
50011;BME280;35899;50.352;19.390;2023-03-03T16:11:01;97965.35;;;0.28;82.71
50011;BME280;35899;50.352;19.390;2023-03-03T16:13:54;97967.81;;;0.26;82.96
50011;BME280;35899;50.352;19.390;2023-03-03T16:16:46;97968.55;;;0.24;82.85
50011;BME280;35899;50.352;19.390;2023-03-03T16:27:31;97964.79;;;0.18;83.62
50011;BME280;35899;50.352;19.390;2023-03-03T16:30:27;97966.65;;;0.18;83.67
50011;BME280;35899;50.352;19.390;2023-03-03T16:33:17;97969.77;;;0.16;83.74
50011;BME280;35899;50.352;19.390;2023-03-03T16:35:54;97971.03;;;0.14;83.89
50011;BME280;35899;50.352;19.390;2023-03-03T16:38:34;97970.39;;;0.13;84.25
50011;BME280;35899;50.352;19.390;2023-03-03T16:41:12;97970.45;;;0.10;84.10
50011;BME280;35899;50.352;19.390;2023-03-03T16:44:11;97968.67;;;0.07;84.31
50011;BME280;35899;50.352;19.390;2023-03-03T16:46:45;97971.79;;;0.05;84.39
50011;BME280;35899;50.352;19.390;2023-03-03T17:00:37;97977.02;;;-0.00;84.83
50011;BME280;35899;50.352;19.390;2023-03-03T17:06:32;97974.52;;;-0.02;85.09
50011;BME280;35899;50.352;19.390;2023-03-03T17:09:02;97976.09;;;-0.03;84.90
50011;BME280;35899;50.352;19.390;2023-03-03T17:12:07;97981.77;;;-0.06;85.19
50011;BME280;35899;50.352;19.390;2023-03-03T17:20:50;97981.08;;;-0.12;85.36
